sensor_id;sensor_type;location;lat;lon;timestamp;pressure;altitude;pressure_sealevel;temperature;humidity
66887;BME280;67239;51.680;5.976;2023-03-14T00:02:16;98851.69;;;11.53;80.43
66887;BME280;67239;51.680;5.976;2023-03-14T00:04:43;98841.91;;;11.55;80.33
66887;BME280;67239;51.680;5.976;2023-03-14T00:07:11;98848.75;;;11.57;80.06
66887;BME280;67239;51.680;5.976;2023-03-14T00:09:40;98845.16;;;11.58;80.20
66887;BME280;67239;51.680;5.976;2023-03-14T00:12:08;98840.53;;;11.62;80.18
66887;BME280;67239;51.680;5.976;2023-03-14T00:14:36;98847.28;;;11.66;79.92
66887;BME280;67239;51.680;5.976;2023-03-14T00:17:03;98833.38;;;11.64;79.81
66887;BME280;67239;51.680;5.976;2023-03-14T00:19:30;98833.25;;;11.65;80.04
66887;BME280;67239;51.680;5.976;2023-03-14T00:21:57;98826.16;;;11.66;80.11
66887;BME280;67239;51.680;5.976;2023-03-14T00:24:24;98827.97;;;11.65;79.39
66887;BME280;67239;51.680;5.976;2023-03-14T00:26:51;98828.91;;;11.64;79.20
66887;BME280;67239;51.680;5.976;2023-03-14T00:29:18;98829.88;;;11.63;78.87
66887;BME280;67239;51.680;5.976;2023-03-14T00:31:45;98827.34;;;11.62;78.71
66887;BME280;67239;51.680;5.976;2023-03-14T00:34:12;98826.41;;;11.63;78.15
66887;BME280;67239;51.680;5.976;2023-03-14T00:36:39;98823.75;;;11.63;78.65
66887;BME280;67239;51.680;5.976;2023-03-14T00:39:06;98834.31;;;11.63;78.40
66887;BME280;67239;51.680;5.976;2023-03-14T00:41:33;98829.03;;;11.63;77.99
66887;BME280;67239;51.680;5.976;2023-03-14T00:44:00;98830.91;;;11.61;78.13
66887;BME280;67239;51.680;5.976;2023-03-14T00:46:27;98832.69;;;11.60;77.75
66887;BME280;67239;51.680;5.976;2023-03-14T00:48:54;98831.75;;;11.61;77.67
66887;BME280;67239;51.680;5.976;2023-03-14T00:51:22;98835.34;;;11.60;77.51
66887;BME280;67239;51.680;5.976;2023-03-14T00:53:49;98834.63;;;11.58;77.49
66887;BME280;67239;51.680;5.976;2023-03-14T00:56:17;98846.94;;;11.58;77.80
66887;BME280;67239;51.680;5.976;2023-03-14T00:58:44;98854.03;;;11.57;77.08
66887;BME280;67239;51.680;5.976;2023-03-14T01:01:17;98868.16;;;11.56;76.42
66887;BME280;67239;51.680;5.976;2023-03-14T01:03:45;98863.09;;;11.53;74.62
66887;BME280;67239;51.680;5.976;2023-03-14T01:06:20;98877.16;;;11.54;73.86
66887;BME280;67239;51.680;5.976;2023-03-14T01:08:50;98886.09;;;11.51;72.76
66887;BME280;67239;51.680;5.976;2023-03-14T01:11:29;98877.53;;;11.47;73.52
66887;BME280;67239;51.680;5.976;2023-03-14T01:13:58;98876.88;;;11.44;73.67
66887;BME280;67239;51.680;5.976;2023-03-14T01:16:30;98871.72;;;11.42;73.23
66887;BME280;67239;51.680;5.976;2023-03-14T01:19:01;98862.09;;;11.41;72.79
66887;BME280;67239;51.680;5.976;2023-03-14T01:21:32;98867.28;;;11.43;71.37
66887;BME280;67239;51.680;5.976;2023-03-14T01:24:02;98862.09;;;11.41;72.06
66887;BME280;67239;51.680;5.976;2023-03-14T01:26:33;98861.34;;;11.39;72.39
66887;BME280;67239;51.680;5.976;2023-03-14T01:29:03;98861.53;;;11.36;72.84
66887;BME280;67239;51.680;5.976;2023-03-14T01:31:35;98851.09;;;11.34;72.62
66887;BME280;67239;51.680;5.976;2023-03-14T01:34:02;98853.84;;;11.33;72.21
66887;BME280;67239;51.680;5.976;2023-03-14T01:36:30;98855.56;;;11.34;71.31
66887;BME280;67239;51.680;5.976;2023-03-14T01:39:00;98846.03;;;11.31;71.84
66887;BME280;67239;51.680;5.976;2023-03-14T01:41:27;98839.16;;;11.29;71.68
66887;BME280;67239;51.680;5.976;2023-03-14T01:43:57;98833.25;;;11.25;71.67
66887;BME280;67239;51.680;5.976;2023-03-14T01:46:29;98821.09;;;11.23;72.07
66887;BME280;67239;51.680;5.976;2023-03-14T01:52:11;98825.06;;;11.15;72.35
66887;BME280;67239;51.680;5.976;2023-03-14T01:54:44;98824.53;;;11.10;72.59
66887;BME280;67239;51.680;5.976;2023-03-14T01:57:25;98814.94;;;11.09;72.52
66887;BME280;67239;51.680;5.976;2023-03-14T02:00:00;98820.41;;;11.06;72.56
66887;BME280;67239;51.680;5.976;2023-03-14T02:02:45;98815.97;;;11.07;72.22
66887;BME280;67239;51.680;5.976;2023-03-14T02:05:21;98807.50;;;11.01;72.81
66887;BME280;67239;51.680;5.976;2023-03-14T02:07:59;98813.66;;;11.02;72.27
66887;BME280;67239;51.680;5.976;2023-03-14T02:10:37;98807.72;;;10.98;72.72
66887;BME280;67239;51.680;5.976;2023-03-14T02:13:10;98810.44;;;10.97;72.63
66887;BME280;67239;51.680;5.976;2023-03-14T02:15:47;98812.31;;;10.95;72.86
66887;BME280;67239;51.680;5.976;2023-03-14T02:18:33;98812.25;;;10.96;72.79
66887;BME280;67239;51.680;5.976;2023-03-14T02:21:57;98812.31;;;10.95;73.23
66887;BME280;67239;51.680;5.976;2023-03-14T02:27:24;98808.84;;;10.94;73.66
66887;BME280;67239;51.680;5.976;2023-03-14T02:30:02;98808.84;;;10.94;73.75
66887;BME280;67239;51.680;5.976;2023-03-14T02:32:34;98809.78;;;10.93;73.69
66887;BME280;67239;51.680;5.976;2023-03-14T02:35:09;98811.38;;;10.96;73.79
66887;BME280;67239;51.680;5.976;2023-03-14T02:40:51;98814.13;;;10.94;73.79
66887;BME280;67239;51.680;5.976;2023-03-14T02:43:18;98808.00;;;10.94;74.07
66887;BME280;67239;51.680;5.976;2023-03-14T02:45:52;98800.19;;;10.92;74.07
66887;BME280;67239;51.680;5.976;2023-03-14T02:48:25;98811.50;;;10.94;74.14
66887;BME280;67239;51.680;5.976;2023-03-14T02:50:56;98802.00;;;10.92;74.30
66887;BME280;67239;51.680;5.976;2023-03-14T02:53:29;98802.81;;;10.92;74.37
66887;BME280;67239;51.680;5.976;2023-03-14T02:56:02;98798.50;;;10.91;74.57
66887;BME280;67239;51.680;5.976;2023-03-14T02:58:32;98798.59;;;10.90;74.87
66887;BME280;67239;51.680;5.976;2023-03-14T03:01:06;98797.03;;;10.87;75.08
66887;BME280;67239;51.680;5.976;2023-03-14T03:03:34;98798.16;;;10.83;75.46
66887;BME280;67239;51.680;5.976;2023-03-14T03:06:01;98799.38;;;10.77;75.53
66887;BME280;67239;51.680;5.976;2023-03-14T03:08:28;98801.47;;;10.72;76.20
66887;BME280;67239;51.680;5.976;2023-03-14T03:10:57;98803.38;;;10.70;76.37
66887;BME280;67239;51.680;5.976;2023-03-14T03:13:27;98795.66;;;10.67;76.65
66887;BME280;67239;51.680;5.976;2023-03-14T03:15:56;98805.34;;;10.66;76.89
66887;BME280;67239;51.680;5.976;2023-03-14T03:18:23;98798.56;;;10.62;77.09
66887;BME280;67239;51.680;5.976;2023-03-14T03:20:50;98802.06;;;10.63;77.36
66887;BME280;67239;51.680;5.976;2023-03-14T03:23:17;98809.97;;;10.63;77.75
66887;BME280;67239;51.680;5.976;2023-03-14T03:25:50;98804.03;;;10.59;77.79
66887;BME280;67239;51.680;5.976;2023-03-14T03:28:18;98795.41;;;10.57;78.07
66887;BME280;67239;51.680;5.976;2023-03-14T03:30:46;98792.84;;;10.55;78.10
66887;BME280;67239;51.680;5.976;2023-03-14T03:33:13;98792.94;;;10.54;78.14
66887;BME280;67239;51.680;5.976;2023-03-14T03:35:48;98799.03;;;10.54;78.50
66887;BME280;67239;51.680;5.976;2023-03-14T03:38:26;98800.94;;;10.52;78.41
66887;BME280;67239;51.680;5.976;2023-03-14T03:40:55;98800.94;;;10.52;78.56
66887;BME280;67239;51.680;5.976;2023-03-14T03:43:25;98794.00;;;10.51;78.44
66887;BME280;67239;51.680;5.976;2023-03-14T03:45:52;98794.00;;;10.51;78.63
66887;BME280;67239;51.680;5.976;2023-03-14T03:48:21;98793.13;;;10.51;78.73
66887;BME280;67239;51.680;5.976;2023-03-14T03:50:48;98793.22;;;10.49;78.96
66887;BME280;67239;51.680;5.976;2023-03-14T03:53:19;98785.44;;;10.48;78.91
66887;BME280;67239;51.680;5.976;2023-03-14T03:56:01;98786.38;;;10.47;78.91
66887;BME280;67239;51.680;5.976;2023-03-14T03:58:29;98785.50;;;10.46;78.94
66887;BME280;67239;51.680;5.976;2023-03-14T04:00:57;98778.47;;;10.47;78.94
66887;BME280;67239;51.680;5.976;2023-03-14T04:03:24;98787.31;;;10.46;78.86
66887;BME280;67239;51.680;5.976;2023-03-14T04:06:06;98780.25;;;10.46;78.92
66887;BME280;67239;51.680;5.976;2023-03-14T04:08:38;98772.53;;;10.43;78.93
66887;BME280;67239;51.680;5.976;2023-03-14T04:11:09;98773.38;;;10.44;78.95
66887;BME280;67239;51.680;5.976;2023-03-14T04:13:55;98769.16;;;10.41;78.86
66887;BME280;67239;51.680;5.976;2023-03-14T04:16:24;98769.16;;;10.41;78.86
66887;BME280;67239;51.680;5.976;2023-03-14T04:18:58;98765.66;;;10.40;78.91
66887;BME280;67239;51.680;5.976;2023-03-14T04:21:26;98761.44;;;10.38;78.91
66887;BME280;67239;51.680;5.976;2023-03-14T04:23:56;98768.56;;;10.36;79.09
66887;BME280;67239;51.680;5.976;2023-03-14T04:26:25;98769.34;;;10.38;79.09
66887;BME280;67239;51.680;5.976;2023-03-14T04:28:52;98767.72;;;10.35;78.95
66887;BME280;67239;51.680;5.976;2023-03-14T04:31:21;98775.69;;;10.34;78.98
66887;BME280;67239;51.680;5.976;2023-03-14T04:33:50;98768.94;;;10.30;78.84
66887;BME280;67239;51.680;5.976;2023-03-14T04:36:24;98768.31;;;10.26;79.13
66887;BME280;67239;51.680;5.976;2023-03-14T04:38:52;98767.53;;;10.24;79.13
66887;BME280;67239;51.680;5.976;2023-03-14T04:41:20;98744.03;;;10.21;79.08
66887;BME280;67239;51.680;5.976;2023-03-14T04:43:47;98749.75;;;10.13;78.59
66887;BME280;67239;51.680;5.976;2023-03-14T04:46:14;98743.38;;;10.03;78.61
66887;BME280;67239;51.680;5.976;2023-03-14T04:48:42;98746.50;;;9.95;78.77
66887;BME280;67239;51.680;5.976;2023-03-14T04:51:09;98751.38;;;9.87;78.89
66887;BME280;67239;51.680;5.976;2023-03-14T04:53:36;98745.72;;;9.78;78.92
66887;BME280;67239;51.680;5.976;2023-03-14T04:56:07;98744.41;;;9.71;79.35
66887;BME280;67239;51.680;5.976;2023-03-14T04:58:39;98752.47;;;9.68;79.79
66887;BME280;67239;51.680;5.976;2023-03-14T05:01:06;98748.06;;;9.69;79.97
66887;BME280;67239;51.680;5.976;2023-03-14T05:03:41;98748.84;;;9.71;80.26
66887;BME280;67239;51.680;5.976;2023-03-14T05:06:21;98749.75;;;9.70;80.38
66887;BME280;67239;51.680;5.976;2023-03-14T05:09:02;98744.78;;;9.65;80.60
66887;BME280;67239;51.680;5.976;2023-03-14T05:11:59;98749.28;;;9.63;80.99
66887;BME280;67239;51.680;5.976;2023-03-14T05:14:55;98746.00;;;9.59;81.36
66887;BME280;67239;51.680;5.976;2023-03-14T05:17:39;98740.81;;;9.58;81.80
66887;BME280;67239;51.680;5.976;2023-03-14T05:20:41;98746.06;;;9.58;82.37
66887;BME280;67239;51.680;5.976;2023-03-14T05:23:28;98750.22;;;9.62;82.76
66887;BME280;67239;51.680;5.976;2023-03-14T05:26:14;98740.25;;;9.67;83.53
66887;BME280;67239;51.680;5.976;2023-03-14T05:28:53;98736.69;;;9.68;83.71
66887;BME280;67239;51.680;5.976;2023-03-14T05:31:49;98739.25;;;9.70;84.02
66887;BME280;67239;51.680;5.976;2023-03-14T05:34:36;98731.41;;;9.68;85.18
66887;BME280;67239;51.680;5.976;2023-03-14T05:37:26;98737.81;;;9.64;85.30
66887;BME280;67239;51.680;5.976;2023-03-14T05:40:07;98733.66;;;9.60;85.59
66887;BME280;67239;51.680;5.976;2023-03-14T05:43:01;98733.84;;;9.57;85.91
66887;BME280;67239;51.680;5.976;2023-03-14T05:45:37;98747.97;;;9.56;86.30
66887;BME280;67239;51.680;5.976;2023-03-14T05:48:24;98750.66;;;9.54;86.74
66887;BME280;67239;51.680;5.976;2023-03-14T05:51:11;98744.84;;;9.63;87.40
66887;BME280;67239;51.680;5.976;2023-03-14T05:53:49;98744.50;;;9.70;87.75
66887;BME280;67239;51.680;5.976;2023-03-14T05:56:42;98742.16;;;9.79;88.10
66887;BME280;67239;51.680;5.976;2023-03-14T05:59:16;98739.72;;;9.91;88.49
66887;BME280;67239;51.680;5.976;2023-03-14T06:02:03;98740.84;;;10.01;88.63
66887;BME280;67239;51.680;5.976;2023-03-14T06:04:41;98739.63;;;10.07;88.29
66887;BME280;67239;51.680;5.976;2023-03-14T06:07:08;98732.31;;;10.12;88.12
66887;BME280;67239;51.680;5.976;2023-03-14T06:09:35;98721.25;;;10.20;88.30
66887;BME280;67239;51.680;5.976;2023-03-14T06:12:03;98713.06;;;10.24;87.99
66887;BME280;67239;51.680;5.976;2023-03-14T06:14:36;98720.78;;;10.28;87.97
66887;BME280;67239;51.680;5.976;2023-03-14T06:17:03;98714.78;;;10.25;87.25
66887;BME280;67239;51.680;5.976;2023-03-14T06:19:37;98709.31;;;10.14;86.89
66887;BME280;67239;51.680;5.976;2023-03-14T06:22:04;98712.47;;;10.06;87.00
66887;BME280;67239;51.680;5.976;2023-03-14T06:24:33;98710.13;;;10.02;87.27
66887;BME280;67239;51.680;5.976;2023-03-14T06:27:01;98706.81;;;9.98;87.38
66887;BME280;67239;51.680;5.976;2023-03-14T06:29:29;98707.94;;;9.94;87.57
66887;BME280;67239;51.680;5.976;2023-03-14T06:31:57;98713.22;;;9.94;87.59
66887;BME280;67239;51.680;5.976;2023-03-14T06:34:25;98708.88;;;9.93;88.07
66887;BME280;67239;51.680;5.976;2023-03-14T06:36:53;98714.03;;;9.94;88.16
66887;BME280;67239;51.680;5.976;2023-03-14T06:39:20;98722.69;;;9.97;87.98
66887;BME280;67239;51.680;5.976;2023-03-14T06:41:53;98722.59;;;9.98;88.63
66887;BME280;67239;51.680;5.976;2023-03-14T06:44:21;98719.78;;;10.01;88.71
66887;BME280;67239;51.680;5.976;2023-03-14T06:46:48;98724.00;;;10.04;88.62
66887;BME280;67239;51.680;5.976;2023-03-14T06:49:15;98719.69;;;10.03;89.11
66887;BME280;67239;51.680;5.976;2023-03-14T06:51:42;98724.88;;;10.04;89.21
66887;BME280;67239;51.680;5.976;2023-03-14T06:54:11;98734.47;;;10.05;89.32
66887;BME280;67239;51.680;5.976;2023-03-14T06:56:38;98726.34;;;10.08;89.41
66887;BME280;67239;51.680;5.976;2023-03-14T06:59:06;98732.31;;;10.12;89.75
66887;BME280;67239;51.680;5.976;2023-03-14T07:01:33;98727.56;;;10.17;89.84
66887;BME280;67239;51.680;5.976;2023-03-14T07:04:05;98732.44;;;10.23;89.91
66887;BME280;67239;51.680;5.976;2023-03-14T07:06:35;98742.50;;;10.31;89.63
66887;BME280;67239;51.680;5.976;2023-03-14T07:09:04;98734.59;;;10.31;89.80
66887;BME280;67239;51.680;5.976;2023-03-14T07:11:33;98738.00;;;10.33;89.77
66887;BME280;67239;51.680;5.976;2023-03-14T07:14:01;98733.38;;;10.37;89.97
66887;BME280;67239;51.680;5.976;2023-03-14T07:16:28;98741.03;;;10.41;89.94
66887;BME280;67239;51.680;5.976;2023-03-14T07:19:00;98750.97;;;10.51;89.73
66887;BME280;67239;51.680;5.976;2023-03-14T07:21:28;98750.19;;;10.63;89.38
66887;BME280;67239;51.680;5.976;2023-03-14T07:23:56;98754.22;;;10.69;89.25
66887;BME280;67239;51.680;5.976;2023-03-14T07:26:23;98750.06;;;10.79;88.76
66887;BME280;67239;51.680;5.976;2023-03-14T07:28:52;98755.88;;;10.84;88.60
66887;BME280;67239;51.680;5.976;2023-03-14T07:31:21;98761.50;;;10.93;88.29
66887;BME280;67239;51.680;5.976;2023-03-14T07:33:48;98767.13;;;11.01;88.49
66887;BME280;67239;51.680;5.976;2023-03-14T07:36:17;98769.66;;;11.02;88.14
66887;BME280;67239;51.680;5.976;2023-03-14T07:38:46;98775.97;;;11.00;87.92
66887;BME280;67239;51.680;5.976;2023-03-14T07:41:36;98775.53;;;10.93;88.01
66887;BME280;67239;51.680;5.976;2023-03-14T07:44:22;98775.00;;;10.88;88.29
66887;BME280;67239;51.680;5.976;2023-03-14T07:46:49;98778.75;;;10.84;88.39
66887;BME280;67239;51.680;5.976;2023-03-14T07:49:16;98792.41;;;10.76;88.72
66887;BME280;67239;51.680;5.976;2023-03-14T07:51:43;98787.56;;;10.70;88.58
66887;BME280;67239;51.680;5.976;2023-03-14T07:54:13;98808.94;;;10.65;88.92
66887;BME280;67239;51.680;5.976;2023-03-14T07:56:40;98878.56;;;10.61;89.76
66887;BME280;67239;51.680;5.976;2023-03-14T07:59:07;98884.31;;;10.08;82.62
66887;BME280;67239;51.680;5.976;2023-03-14T08:01:34;98884.50;;;9.44;84.23
66887;BME280;67239;51.680;5.976;2023-03-14T08:04:01;98889.53;;;9.01;86.37
66887;BME280;67239;51.680;5.976;2023-03-14T08:06:28;98901.56;;;8.73;87.99
66887;BME280;67239;51.680;5.976;2023-03-14T08:08:55;98916.41;;;8.57;89.22
66887;BME280;67239;51.680;5.976;2023-03-14T08:11:22;98932.19;;;8.39;89.11
66887;BME280;67239;51.680;5.976;2023-03-14T08:13:49;98927.25;;;8.15;89.32
66887;BME280;67239;51.680;5.976;2023-03-14T08:16:17;98945.72;;;7.96;90.40
66887;BME280;67239;51.680;5.976;2023-03-14T08:18:45;98933.34;;;7.81;91.75
66887;BME280;67239;51.680;5.976;2023-03-14T08:21:13;98949.66;;;7.68;93.18
66887;BME280;67239;51.680;5.976;2023-03-14T08:23:40;98955.22;;;7.62;94.13
66887;BME280;67239;51.680;5.976;2023-03-14T08:26:07;98964.31;;;7.55;94.60
66887;BME280;67239;51.680;5.976;2023-03-14T08:28:34;98967.16;;;7.50;95.05
66887;BME280;67239;51.680;5.976;2023-03-14T08:31:01;98965.72;;;7.43;95.19
66887;BME280;67239;51.680;5.976;2023-03-14T08:33:29;98975.69;;;7.36;95.69
66887;BME280;67239;51.680;5.976;2023-03-14T08:35:59;98996.78;;;7.33;96.45
66887;BME280;67239;51.680;5.976;2023-03-14T08:38:27;99005.56;;;7.32;96.58
66887;BME280;67239;51.680;5.976;2023-03-14T08:40:58;99016.97;;;7.31;96.97
66887;BME280;67239;51.680;5.976;2023-03-14T08:43:28;99015.06;;;7.35;97.58
66887;BME280;67239;51.680;5.976;2023-03-14T08:45:59;99007.63;;;7.44;96.92
66887;BME280;67239;51.680;5.976;2023-03-14T08:48:28;99022.84;;;7.55;96.44
66887;BME280;67239;51.680;5.976;2023-03-14T08:51:04;99036.22;;;7.68;95.69
66887;BME280;67239;51.680;5.976;2023-03-14T08:53:34;99051.78;;;7.73;95.45
66887;BME280;67239;51.680;5.976;2023-03-14T08:56:01;99064.69;;;7.77;95.82
66887;BME280;67239;51.680;5.976;2023-03-14T08:58:29;99075.91;;;7.80;94.81
66887;BME280;67239;51.680;5.976;2023-03-14T09:00:56;99082.31;;;7.93;94.34
66887;BME280;67239;51.680;5.976;2023-03-14T09:03:24;99085.41;;;8.01;93.76
66887;BME280;67239;51.680;5.976;2023-03-14T09:05:52;99099.19;;;8.06;92.52
66887;BME280;67239;51.680;5.976;2023-03-14T09:08:19;99097.94;;;8.14;93.03
66887;BME280;67239;51.680;5.976;2023-03-14T09:10:46;99103.97;;;8.16;92.97
66887;BME280;67239;51.680;5.976;2023-03-14T09:13:13;99113.91;;;8.09;92.58
66887;BME280;67239;51.680;5.976;2023-03-14T09:15:40;99137.09;;;7.99;90.71
66887;BME280;67239;51.680;5.976;2023-03-14T09:18:09;99151.56;;;7.89;90.44
66887;BME280;67239;51.680;5.976;2023-03-14T09:20:36;99158.38;;;7.74;89.66
66887;BME280;67239;51.680;5.976;2023-03-14T09:23:03;99198.34;;;7.60;90.01
66887;BME280;67239;51.680;5.976;2023-03-14T09:25:30;99207.81;;;7.43;89.41
66887;BME280;67239;51.680;5.976;2023-03-14T09:27:57;99240.91;;;7.25;87.76
66887;BME280;67239;51.680;5.976;2023-03-14T09:30:24;99224.31;;;7.04;86.29
66887;BME280;67239;51.680;5.976;2023-03-14T09:32:51;99238.72;;;6.94;87.05
66887;BME280;67239;51.680;5.976;2023-03-14T09:35:18;99242.38;;;6.90;87.84
66887;BME280;67239;51.680;5.976;2023-03-14T09:37:45;99262.41;;;6.91;87.58
66887;BME280;67239;51.680;5.976;2023-03-14T09:40:14;99271.97;;;6.92;87.56
66887;BME280;67239;51.680;5.976;2023-03-14T09:42:42;99280.81;;;6.89;88.33
66887;BME280;67239;51.680;5.976;2023-03-14T09:45:26;99295.63;;;6.90;87.75
66887;BME280;67239;51.680;5.976;2023-03-14T09:47:57;99312.97;;;6.93;88.00
66887;BME280;67239;51.680;5.976;2023-03-14T09:50:31;99316.88;;;7.05;88.33
66887;BME280;67239;51.680;5.976;2023-03-14T09:53:09;99328.56;;;7.18;86.28
66887;BME280;67239;51.680;5.976;2023-03-14T09:55:45;99338.75;;;7.26;85.78
66887;BME280;67239;51.680;5.976;2023-03-14T09:58:16;99344.91;;;7.25;85.21
66887;BME280;67239;51.680;5.976;2023-03-14T10:00:49;99364.06;;;7.27;84.74
66887;BME280;67239;51.680;5.976;2023-03-14T10:05:58;99387.06;;;7.63;83.83
66887;BME280;67239;51.680;5.976;2023-03-14T10:08:26;99392.41;;;7.82;83.63
66887;BME280;67239;51.680;5.976;2023-03-14T10:10:54;99411.22;;;7.92;79.83
66887;BME280;67239;51.680;5.976;2023-03-14T10:13:27;99406.84;;;7.92;80.90
66887;BME280;67239;51.680;5.976;2023-03-14T10:16:00;99425.13;;;7.94;81.57
66887;BME280;67239;51.680;5.976;2023-03-14T10:18:31;99432.41;;;7.87;80.89
66887;BME280;67239;51.680;5.976;2023-03-14T10:21:20;99449.94;;;7.87;80.20
66887;BME280;67239;51.680;5.976;2023-03-14T10:23:52;99469.88;;;7.91;79.88
66887;BME280;67239;51.680;5.976;2023-03-14T10:26:24;99472.09;;;8.00;78.70
66887;BME280;67239;51.680;5.976;2023-03-14T10:29:15;99490.06;;;7.89;77.96
66887;BME280;67239;51.680;5.976;2023-03-14T10:31:55;99497.59;;;7.76;78.26
66887;BME280;67239;51.680;5.976;2023-03-14T10:34:28;99508.22;;;7.73;78.24
66887;BME280;67239;51.680;5.976;2023-03-14T10:39:53;99544.06;;;7.50;77.15
66887;BME280;67239;51.680;5.976;2023-03-14T10:42:27;99566.16;;;7.43;77.16
66887;BME280;67239;51.680;5.976;2023-03-14T10:45:01;99563.91;;;7.34;77.56
66887;BME280;67239;51.680;5.976;2023-03-14T10:47:32;99582.66;;;7.46;78.03
66887;BME280;67239;51.680;5.976;2023-03-14T10:50:25;99580.50;;;7.58;77.85
66887;BME280;67239;51.680;5.976;2023-03-14T10:52:56;99602.66;;;7.73;76.81
66887;BME280;67239;51.680;5.976;2023-03-14T10:55:39;99611.75;;;7.86;76.34
66887;BME280;67239;51.680;5.976;2023-03-14T11:01:00;99615.44;;;8.04;75.88
66887;BME280;67239;51.680;5.976;2023-03-14T11:03:36;99618.97;;;8.26;74.37
66887;BME280;67239;51.680;5.976;2023-03-14T11:06:14;99635.69;;;8.45;73.64
66887;BME280;67239;51.680;5.976;2023-03-14T11:08:57;99649.69;;;8.68;72.67
66887;BME280;67239;51.680;5.976;2023-03-14T11:11:32;99667.84;;;8.74;68.42
66887;BME280;67239;51.680;5.976;2023-03-14T11:14:26;99672.03;;;8.78;68.77
66887;BME280;67239;51.680;5.976;2023-03-14T11:26:12;99703.19;;;8.88;68.44
66887;BME280;67239;51.680;5.976;2023-03-14T11:29:33;99714.97;;;8.79;66.00
66887;BME280;67239;51.680;5.976;2023-03-14T11:35:29;99735.47;;;8.47;67.22
66887;BME280;67239;51.680;5.976;2023-03-14T11:38:30;99763.28;;;8.05;70.24
66887;BME280;67239;51.680;5.976;2023-03-14T11:41:14;99786.34;;;7.71;69.20
66887;BME280;67239;51.680;5.976;2023-03-14T11:43:48;99776.88;;;7.42;71.06
66887;BME280;67239;51.680;5.976;2023-03-14T11:46:31;99785.03;;;7.33;71.80
66887;BME280;67239;51.680;5.976;2023-03-14T11:52:12;99806.41;;;7.47;74.72
66887;BME280;67239;51.680;5.976;2023-03-14T11:54:53;99801.88;;;7.52;74.84
66887;BME280;67239;51.680;5.976;2023-03-14T11:57:25;99815.59;;;7.60;75.00
66887;BME280;67239;51.680;5.976;2023-03-14T12:12:00;99867.78;;;7.14;72.63
66887;BME280;67239;51.680;5.976;2023-03-14T12:17:17;99886.47;;;6.74;73.43
66887;BME280;67239;51.680;5.976;2023-03-14T12:19:53;99885.56;;;6.75;72.87
66887;BME280;67239;51.680;5.976;2023-03-14T12:22:34;99882.53;;;6.89;71.97
66887;BME280;67239;51.680;5.976;2023-03-14T12:30:29;99914.59;;;7.27;70.19
66887;BME280;67239;51.680;5.976;2023-03-14T12:35:46;99918.50;;;7.42;66.45
66887;BME280;67239;51.680;5.976;2023-03-14T12:41:22;99930.44;;;7.51;66.03
66887;BME280;67239;51.680;5.976;2023-03-14T12:43:55;99915.66;;;7.75;66.13
66887;BME280;67239;51.680;5.976;2023-03-14T12:46:25;99932.63;;;7.91;64.46
66887;BME280;67239;51.680;5.976;2023-03-14T12:49:03;99936.41;;;8.08;60.40
66887;BME280;67239;51.680;5.976;2023-03-14T12:51:36;99937.22;;;8.10;57.84
66887;BME280;67239;51.680;5.976;2023-03-14T12:59:58;99961.03;;;8.31;54.30
66887;BME280;67239;51.680;5.976;2023-03-14T13:02:43;99957.72;;;8.51;54.20
66887;BME280;67239;51.680;5.976;2023-03-14T13:05:22;99969.34;;;8.69;51.81
66887;BME280;67239;51.680;5.976;2023-03-14T13:10:28;99987.41;;;9.02;51.96
66887;BME280;67239;51.680;5.976;2023-03-14T13:15:49;99999.78;;;9.22;53.00
66887;BME280;67239;51.680;5.976;2023-03-14T13:18:41;100019.38;;;9.37;49.75
66887;BME280;67239;51.680;5.976;2023-03-14T13:21:21;100022.25;;;9.31;47.94
66887;BME280;67239;51.680;5.976;2023-03-14T13:26:31;100012.84;;;9.25;51.51
66887;BME280;67239;51.680;5.976;2023-03-14T13:29:28;100038.31;;;9.23;47.72
66887;BME280;67239;51.680;5.976;2023-03-14T13:32:12;100028.91;;;9.17;46.68
66887;BME280;67239;51.680;5.976;2023-03-14T13:34:44;100051.81;;;9.14;45.79
66887;BME280;67239;51.680;5.976;2023-03-14T13:37:20;100054.41;;;9.15;46.72
66887;BME280;67239;51.680;5.976;2023-03-14T13:39:54;100063.03;;;9.19;47.25
66887;BME280;67239;51.680;5.976;2023-03-14T13:42:27;100060.28;;;9.22;47.22
66887;BME280;67239;51.680;5.976;2023-03-14T13:44:56;100072.47;;;9.25;46.06
66887;BME280;67239;51.680;5.976;2023-03-14T13:47:25;100077.09;;;9.18;45.53
66887;BME280;67239;51.680;5.976;2023-03-14T13:49:53;100078.34;;;9.08;44.84
66887;BME280;67239;51.680;5.976;2023-03-14T13:52:38;100089.97;;;9.00;42.34
66887;BME280;67239;51.680;5.976;2023-03-14T13:55:14;100091.09;;;8.95;42.03
66887;BME280;67239;51.680;5.976;2023-03-14T13:57:50;100096.34;;;8.95;43.84
66887;BME280;67239;51.680;5.976;2023-03-14T14:00:24;100124.44;;;8.93;44.38
66887;BME280;67239;51.680;5.976;2023-03-14T14:02:55;100110.28;;;8.97;45.93
66887;BME280;67239;51.680;5.976;2023-03-14T14:05:28;100135.13;;;8.88;45.12
66887;BME280;67239;51.680;5.976;2023-03-14T14:07:58;100134.00;;;8.95;45.34
66887;BME280;67239;51.680;5.976;2023-03-14T14:10:26;100140.72;;;9.04;43.44
66887;BME280;67239;51.680;5.976;2023-03-14T14:13:00;100161.44;;;9.13;42.04
66887;BME280;67239;51.680;5.976;2023-03-14T14:15:38;100161.94;;;9.23;41.77
66887;BME280;67239;51.680;5.976;2023-03-14T14:18:13;100181.88;;;9.30;41.75
66887;BME280;67239;51.680;5.976;2023-03-14T14:20:46;100173.19;;;9.28;41.65
66887;BME280;67239;51.680;5.976;2023-03-14T14:23:17;100194.81;;;9.11;42.28
66887;BME280;67239;51.680;5.976;2023-03-14T14:25:52;100197.03;;;8.97;41.20
66887;BME280;67239;51.680;5.976;2023-03-14T14:28:26;100194.53;;;8.94;41.24
66887;BME280;67239;51.680;5.976;2023-03-14T14:33:56;100215.19;;;9.05;41.66
66887;BME280;67239;51.680;5.976;2023-03-14T14:36:28;100216.91;;;9.06;41.68
66887;BME280;67239;51.680;5.976;2023-03-14T14:38:59;100213.38;;;9.07;42.88
66887;BME280;67239;51.680;5.976;2023-03-14T14:41:49;100237.13;;;9.04;43.39
66887;BME280;67239;51.680;5.976;2023-03-14T14:44:30;100240.78;;;8.99;43.37
66887;BME280;67239;51.680;5.976;2023-03-14T14:47:02;100243.56;;;8.95;43.45
66887;BME280;67239;51.680;5.976;2023-03-14T14:49:32;100245.53;;;8.88;44.07
66887;BME280;67239;51.680;5.976;2023-03-14T14:52:08;100275.50;;;8.82;42.94